sensor_id;sensor_type;location;lat;lon;timestamp;P1;durP1;ratioP1;P2;durP2;ratioP2
17915;SDS011;9083;49.156;8.982;2023-04-19T00:02:24;21.37;;;11.10;;
17915;SDS011;9083;49.156;8.982;2023-04-19T00:04:51;18.33;;;11.40;;
17915;SDS011;9083;49.156;8.982;2023-04-19T00:07:20;17.67;;;10.47;;
17915;SDS011;9083;49.156;8.982;2023-04-19T00:09:47;17.63;;;10.07;;
17915;SDS011;9083;49.156;8.982;2023-04-19T00:12:13;16.40;;;10.47;;
17915;SDS011;9083;49.156;8.982;2023-04-19T00:14:40;16.13;;;10.20;;
17915;SDS011;9083;49.156;8.982;2023-04-19T00:17:06;18.37;;;11.30;;
17915;SDS011;9083;49.156;8.982;2023-04-19T00:19:32;17.23;;;9.63;;
17915;SDS011;9083;49.156;8.982;2023-04-19T00:21:59;16.00;;;10.57;;
17915;SDS011;9083;49.156;8.982;2023-04-19T00:24:27;17.50;;;10.60;;
17915;SDS011;9083;49.156;8.982;2023-04-19T00:26:53;17.03;;;10.27;;
17915;SDS011;9083;49.156;8.982;2023-04-19T00:29:19;19.87;;;10.27;;
17915;SDS011;9083;49.156;8.982;2023-04-19T00:31:46;17.33;;;9.40;;
17915;SDS011;9083;49.156;8.982;2023-04-19T00:34:12;14.47;;;10.27;;
17915;SDS011;9083;49.156;8.982;2023-04-19T00:36:39;16.40;;;8.93;;
17915;SDS011;9083;49.156;8.982;2023-04-19T00:39:08;18.27;;;9.23;;
17915;SDS011;9083;49.156;8.982;2023-04-19T00:41:36;19.03;;;10.40;;
17915;SDS011;9083;49.156;8.982;2023-04-19T00:44:03;18.87;;;9.87;;
17915;SDS011;9083;49.156;8.982;2023-04-19T00:46:29;19.27;;;10.40;;
17915;SDS011;9083;49.156;8.982;2023-04-19T00:48:56;16.63;;;10.60;;
17915;SDS011;9083;49.156;8.982;2023-04-19T00:51:22;16.73;;;10.17;;
17915;SDS011;9083;49.156;8.982;2023-04-19T00:53:49;17.67;;;10.60;;
17915;SDS011;9083;49.156;8.982;2023-04-19T00:56:15;14.80;;;9.93;;
17915;SDS011;9083;49.156;8.982;2023-04-19T00:58:43;17.60;;;9.80;;
17915;SDS011;9083;49.156;8.982;2023-04-19T01:01:12;15.63;;;9.20;;
17915;SDS011;9083;49.156;8.982;2023-04-19T01:03:39;17.63;;;9.97;;
17915;SDS011;9083;49.156;8.982;2023-04-19T01:06:06;16.33;;;9.40;;
17915;SDS011;9083;49.156;8.982;2023-04-19T01:08:32;20.33;;;11.07;;
17915;SDS011;9083;49.156;8.982;2023-04-19T01:10:59;17.53;;;10.00;;
17915;SDS011;9083;49.156;8.982;2023-04-19T01:13:25;18.17;;;10.33;;
17915;SDS011;9083;49.156;8.982;2023-04-19T01:15:53;17.70;;;10.40;;
17915;SDS011;9083;49.156;8.982;2023-04-19T01:18:20;17.10;;;10.33;;
17915;SDS011;9083;49.156;8.982;2023-04-19T01:20:48;15.63;;;9.53;;
17915;SDS011;9083;49.156;8.982;2023-04-19T01:23:16;17.33;;;9.97;;
17915;SDS011;9083;49.156;8.982;2023-04-19T01:25:42;19.43;;;10.00;;
17915;SDS011;9083;49.156;8.982;2023-04-19T01:28:09;16.87;;;9.60;;
17915;SDS011;9083;49.156;8.982;2023-04-19T01:30:35;17.47;;;10.30;;
17915;SDS011;9083;49.156;8.982;2023-04-19T01:33:01;14.50;;;8.53;;
17915;SDS011;9083;49.156;8.982;2023-04-19T01:35:28;15.60;;;9.80;;
17915;SDS011;9083;49.156;8.982;2023-04-19T01:37:54;15.33;;;8.57;;
17915;SDS011;9083;49.156;8.982;2023-04-19T01:40:23;16.40;;;9.77;;
17915;SDS011;9083;49.156;8.982;2023-04-19T01:42:50;17.80;;;9.60;;
17915;SDS011;9083;49.156;8.982;2023-04-19T01:45:16;15.70;;;9.30;;
17915;SDS011;9083;49.156;8.982;2023-04-19T01:47:42;17.03;;;9.67;;
17915;SDS011;9083;49.156;8.982;2023-04-19T01:50:09;19.50;;;9.20;;
17915;SDS011;9083;49.156;8.982;2023-04-19T01:52:36;16.43;;;9.90;;
17915;SDS011;9083;49.156;8.982;2023-04-19T01:55:02;16.87;;;9.63;;
17915;SDS011;9083;49.156;8.982;2023-04-19T01:57:30;18.60;;;9.83;;
17915;SDS011;9083;49.156;8.982;2023-04-19T01:59:56;17.40;;;8.77;;
17915;SDS011;9083;49.156;8.982;2023-04-19T02:02:23;14.83;;;9.47;;
17915;SDS011;9083;49.156;8.982;2023-04-19T02:04:49;16.93;;;9.83;;
17915;SDS011;9083;49.156;8.982;2023-04-19T02:07:15;15.37;;;9.50;;
17915;SDS011;9083;49.156;8.982;2023-04-19T02:09:42;15.97;;;8.83;;
17915;SDS011;9083;49.156;8.982;2023-04-19T02:12:08;14.93;;;9.23;;
17915;SDS011;9083;49.156;8.982;2023-04-19T02:14:36;13.70;;;8.73;;
17915;SDS011;9083;49.156;8.982;2023-04-19T02:17:02;14.13;;;8.63;;
17915;SDS011;9083;49.156;8.982;2023-04-19T02:19:29;15.83;;;9.47;;
17915;SDS011;9083;49.156;8.982;2023-04-19T02:21:55;12.90;;;8.90;;
17915;SDS011;9083;49.156;8.982;2023-04-19T02:24:22;14.50;;;8.73;;
17915;SDS011;9083;49.156;8.982;2023-04-19T02:26:48;13.73;;;9.20;;
17915;SDS011;9083;49.156;8.982;2023-04-19T02:29:15;14.77;;;8.13;;
17915;SDS011;9083;49.156;8.982;2023-04-19T02:31:43;15.00;;;9.07;;
17915;SDS011;9083;49.156;8.982;2023-04-19T02:34:10;13.73;;;8.43;;
17915;SDS011;9083;49.156;8.982;2023-04-19T02:36:36;14.17;;;8.03;;
17915;SDS011;9083;49.156;8.982;2023-04-19T02:39:03;14.53;;;8.73;;
17915;SDS011;9083;49.156;8.982;2023-04-19T02:41:30;13.53;;;8.37;;
17915;SDS011;9083;49.156;8.982;2023-04-19T02:43:57;13.40;;;8.67;;
17915;SDS011;9083;49.156;8.982;2023-04-19T02:46:23;13.83;;;8.57;;
17915;SDS011;9083;49.156;8.982;2023-04-19T02:48:51;13.47;;;8.40;;
17915;SDS011;9083;49.156;8.982;2023-04-19T02:51:17;14.80;;;8.17;;
17915;SDS011;9083;49.156;8.982;2023-04-19T02:53:44;14.37;;;8.67;;
17915;SDS011;9083;49.156;8.982;2023-04-19T02:56:10;15.13;;;7.90;;
17915;SDS011;9083;49.156;8.982;2023-04-19T02:58:36;13.83;;;8.70;;
17915;SDS011;9083;49.156;8.982;2023-04-19T03:01:03;15.13;;;9.17;;
17915;SDS011;9083;49.156;8.982;2023-04-19T03:03:29;14.20;;;8.60;;
17915;SDS011;9083;49.156;8.982;2023-04-19T03:05:57;13.07;;;8.20;;
17915;SDS011;9083;49.156;8.982;2023-04-19T03:08:24;12.57;;;8.27;;
17915;SDS011;9083;49.156;8.982;2023-04-19T03:10:50;11.93;;;7.97;;
17915;SDS011;9083;49.156;8.982;2023-04-19T03:13:16;12.67;;;7.90;;
17915;SDS011;9083;49.156;8.982;2023-04-19T03:15:43;11.17;;;7.47;;
17915;SDS011;9083;49.156;8.982;2023-04-19T03:18:09;12.13;;;7.77;;
17915;SDS011;9083;49.156;8.982;2023-04-19T03:20:35;12.50;;;8.07;;
17915;SDS011;9083;49.156;8.982;2023-04-19T03:23:03;13.90;;;8.60;;
17915;SDS011;9083;49.156;8.982;2023-04-19T03:25:30;11.47;;;8.03;;
17915;SDS011;9083;49.156;8.982;2023-04-19T03:27:57;13.57;;;8.30;;
17915;SDS011;9083;49.156;8.982;2023-04-19T03:30:23;10.17;;;7.50;;
17915;SDS011;9083;49.156;8.982;2023-04-19T03:32:50;12.23;;;7.33;;
17915;SDS011;9083;49.156;8.982;2023-04-19T03:35:16;11.77;;;7.40;;
17915;SDS011;9083;49.156;8.982;2023-04-19T03:37:43;12.70;;;7.63;;
17915;SDS011;9083;49.156;8.982;2023-04-19T03:40:11;11.50;;;7.53;;
17915;SDS011;9083;49.156;8.982;2023-04-19T03:42:37;11.93;;;8.93;;
17915;SDS011;9083;49.156;8.982;2023-04-19T03:45:04;13.67;;;8.57;;
17915;SDS011;9083;49.156;8.982;2023-04-19T03:47:31;10.77;;;7.10;;
17915;SDS011;9083;49.156;8.982;2023-04-19T03:49:57;13.77;;;8.03;;
17915;SDS011;9083;49.156;8.982;2023-04-19T03:52:23;12.03;;;8.10;;
17915;SDS011;9083;49.156;8.982;2023-04-19T03:54:51;13.20;;;7.20;;
17915;SDS011;9083;49.156;8.982;2023-04-19T03:57:19;13.37;;;8.50;;
17915;SDS011;9083;49.156;8.982;2023-04-19T03:59:46;14.90;;;7.90;;
17915;SDS011;9083;49.156;8.982;2023-04-19T04:02:12;21.97;;;8.90;;
17915;SDS011;9083;49.156;8.982;2023-04-19T04:04:39;12.93;;;8.37;;
17915;SDS011;9083;49.156;8.982;2023-04-19T04:07:05;13.30;;;7.70;;
17915;SDS011;9083;49.156;8.982;2023-04-19T04:09:31;12.10;;;8.20;;
17915;SDS011;9083;49.156;8.982;2023-04-19T04:11:58;12.30;;;7.73;;
17915;SDS011;9083;49.156;8.982;2023-04-19T04:14:26;13.93;;;8.17;;
17915;SDS011;9083;49.156;8.982;2023-04-19T04:16:52;15.87;;;8.40;;
17915;SDS011;9083;49.156;8.982;2023-04-19T04:19:18;21.83;;;8.40;;
17915;SDS011;9083;49.156;8.982;2023-04-19T04:21:46;10.77;;;7.40;;
17915;SDS011;9083;49.156;8.982;2023-04-19T04:24:13;14.40;;;8.17;;
17915;SDS011;9083;49.156;8.982;2023-04-19T04:26:39;11.37;;;7.80;;
17915;SDS011;9083;49.156;8.982;2023-04-19T04:29:06;12.33;;;7.37;;
17915;SDS011;9083;49.156;8.982;2023-04-19T04:31:34;16.90;;;8.20;;
17915;SDS011;9083;49.156;8.982;2023-04-19T04:34:01;10.50;;;7.50;;
17915;SDS011;9083;49.156;8.982;2023-04-19T04:36:27;15.43;;;7.90;;
17915;SDS011;9083;49.156;8.982;2023-04-19T04:38:54;14.47;;;8.10;;
17915;SDS011;9083;49.156;8.982;2023-04-19T04:41:21;16.57;;;9.10;;
17915;SDS011;9083;49.156;8.982;2023-04-19T04:43:47;14.80;;;8.03;;
17915;SDS011;9083;49.156;8.982;2023-04-19T04:46:15;13.73;;;8.50;;
17915;SDS011;9083;49.156;8.982;2023-04-19T04:48:43;15.07;;;8.93;;
17915;SDS011;9083;49.156;8.982;2023-04-19T04:51:09;15.03;;;7.93;;
17915;SDS011;9083;49.156;8.982;2023-04-19T04:53:36;14.57;;;8.50;;
17915;SDS011;9083;49.156;8.982;2023-04-19T04:56:02;30.60;;;11.43;;
17915;SDS011;9083;49.156;8.982;2023-04-19T04:58:29;13.13;;;8.10;;
17915;SDS011;9083;49.156;8.982;2023-04-19T05:00:55;12.93;;;7.97;;
17915;SDS011;9083;49.156;8.982;2023-04-19T05:03:21;9.33;;;7.20;;
17915;SDS011;9083;49.156;8.982;2023-04-19T05:05:49;13.17;;;7.63;;
17915;SDS011;9083;49.156;8.982;2023-04-19T05:08:16;13.87;;;7.97;;
17915;SDS011;9083;49.156;8.982;2023-04-19T05:10:42;21.57;;;7.87;;
17915;SDS011;9083;49.156;8.982;2023-04-19T05:13:09;11.80;;;7.37;;
17915;SDS011;9083;49.156;8.982;2023-04-19T05:15:36;13.47;;;7.87;;
17915;SDS011;9083;49.156;8.982;2023-04-19T05:18:02;13.20;;;8.13;;
17915;SDS011;9083;49.156;8.982;2023-04-19T05:20:29;13.30;;;7.53;;
17915;SDS011;9083;49.156;8.982;2023-04-19T05:22:57;20.33;;;7.90;;
17915;SDS011;9083;49.156;8.982;2023-04-19T05:25:24;13.37;;;7.87;;
17915;SDS011;9083;49.156;8.982;2023-04-19T05:27:51;14.17;;;8.43;;
17915;SDS011;9083;49.156;8.982;2023-04-19T05:30:17;19.77;;;7.97;;
17915;SDS011;9083;49.156;8.982;2023-04-19T05:32:43;14.80;;;7.07;;
17915;SDS011;9083;49.156;8.982;2023-04-19T05:35:10;15.40;;;8.03;;
17915;SDS011;9083;49.156;8.982;2023-04-19T05:37:37;37.77;;;8.50;;
17915;SDS011;9083;49.156;8.982;2023-04-19T05:40:05;13.87;;;7.47;;
17915;SDS011;9083;49.156;8.982;2023-04-19T05:42:34;15.83;;;8.40;;
17915;SDS011;9083;49.156;8.982;2023-04-19T05:45:00;22.17;;;8.63;;
17915;SDS011;9083;49.156;8.982;2023-04-19T05:47:26;11.57;;;7.67;;
17915;SDS011;9083;49.156;8.982;2023-04-19T05:49:53;25.80;;;8.90;;
17915;SDS011;9083;49.156;8.982;2023-04-19T05:52:19;18.23;;;7.83;;
17915;SDS011;9083;49.156;8.982;2023-04-19T05:54:46;12.40;;;7.70;;
17915;SDS011;9083;49.156;8.982;2023-04-19T05:57:13;17.73;;;7.37;;
17915;SDS011;9083;49.156;8.982;2023-04-19T05:59:41;25.77;;;8.47;;
17915;SDS011;9083;49.156;8.982;2023-04-19T06:02:07;14.93;;;8.33;;
17915;SDS011;9083;49.156;8.982;2023-04-19T06:04:34;10.23;;;6.90;;
17915;SDS011;9083;49.156;8.982;2023-04-19T06:07:00;13.30;;;7.80;;
17915;SDS011;9083;49.156;8.982;2023-04-19T06:09:29;19.23;;;8.60;;
17915;SDS011;9083;49.156;8.982;2023-04-19T06:11:56;16.37;;;7.53;;
17915;SDS011;9083;49.156;8.982;2023-04-19T06:14:25;12.60;;;7.33;;
17915;SDS011;9083;49.156;8.982;2023-04-19T06:16:52;11.83;;;8.00;;
17915;SDS011;9083;49.156;8.982;2023-04-19T06:19:18;12.93;;;7.70;;
17915;SDS011;9083;49.156;8.982;2023-04-19T06:21:45;14.37;;;9.20;;
17915;SDS011;9083;49.156;8.982;2023-04-19T06:24:11;20.60;;;8.67;;
17915;SDS011;9083;49.156;8.982;2023-04-19T06:26:38;16.13;;;8.97;;
17915;SDS011;9083;49.156;8.982;2023-04-19T06:29:04;15.63;;;8.40;;
17915;SDS011;9083;49.156;8.982;2023-04-19T06:31:32;15.27;;;9.53;;
17915;SDS011;9083;49.156;8.982;2023-04-19T06:33:58;18.10;;;9.23;;
17915;SDS011;9083;49.156;8.982;2023-04-19T06:36:25;12.90;;;8.00;;
17915;SDS011;9083;49.156;8.982;2023-04-19T06:38:51;14.80;;;9.53;;
17915;SDS011;9083;49.156;8.982;2023-04-19T06:41:21;18.23;;;8.80;;
17915;SDS011;9083;49.156;8.982;2023-04-19T06:43:47;9.80;;;6.97;;
17915;SDS011;9083;49.156;8.982;2023-04-19T06:46:13;12.80;;;8.43;;
17915;SDS011;9083;49.156;8.982;2023-04-19T06:48:41;15.10;;;8.97;;
17915;SDS011;9083;49.156;8.982;2023-04-19T06:51:08;26.23;;;9.47;;
17915;SDS011;9083;49.156;8.982;2023-04-19T06:53:34;13.20;;;8.17;;
17915;SDS011;9083;49.156;8.982;2023-04-19T06:56:01;16.10;;;8.70;;
17915;SDS011;9083;49.156;8.982;2023-04-19T06:58:28;16.47;;;8.90;;
17915;SDS011;9083;49.156;8.982;2023-04-19T07:00:56;18.07;;;9.10;;
17915;SDS011;9083;49.156;8.982;2023-04-19T07:03:22;20.27;;;9.70;;
17915;SDS011;9083;49.156;8.982;2023-04-19T07:05:50;17.97;;;9.07;;
17915;SDS011;9083;49.156;8.982;2023-04-19T07:08:20;13.60;;;8.97;;
17915;SDS011;9083;49.156;8.982;2023-04-19T07:10:46;22.90;;;9.73;;
17915;SDS011;9083;49.156;8.982;2023-04-19T07:13:12;17.60;;;10.40;;
17915;SDS011;9083;49.156;8.982;2023-04-19T07:15:39;20.13;;;9.93;;
17915;SDS011;9083;49.156;8.982;2023-04-19T07:18:05;14.67;;;9.53;;
17915;SDS011;9083;49.156;8.982;2023-04-19T07:20:32;15.40;;;9.47;;
17915;SDS011;9083;49.156;8.982;2023-04-19T07:23:00;14.57;;;9.13;;
17915;SDS011;9083;49.156;8.982;2023-04-19T07:25:26;15.23;;;9.27;;
17915;SDS011;9083;49.156;8.982;2023-04-19T07:27:53;19.37;;;9.33;;
17915;SDS011;9083;49.156;8.982;2023-04-19T07:30:20;18.67;;;9.50;;
17915;SDS011;9083;49.156;8.982;2023-04-19T07:32:47;12.60;;;7.30;;
17915;SDS011;9083;49.156;8.982;2023-04-19T07:35:15;39.70;;;11.17;;
17915;SDS011;9083;49.156;8.982;2023-04-19T07:37:42;14.43;;;8.87;;
17915;SDS011;9083;49.156;8.982;2023-04-19T07:40:10;17.47;;;9.77;;
17915;SDS011;9083;49.156;8.982;2023-04-19T07:42:37;14.37;;;9.17;;
17915;SDS011;9083;49.156;8.982;2023-04-19T07:45:03;12.37;;;7.87;;
17915;SDS011;9083;49.156;8.982;2023-04-19T07:47:30;14.57;;;9.13;;
17915;SDS011;9083;49.156;8.982;2023-04-19T07:49:56;15.67;;;9.10;;
17915;SDS011;9083;49.156;8.982;2023-04-19T07:52:23;15.20;;;9.20;;
17915;SDS011;9083;49.156;8.982;2023-04-19T07:54:49;14.80;;;8.97;;
17915;SDS011;9083;49.156;8.982;2023-04-19T07:57:17;11.77;;;8.77;;
17915;SDS011;9083;49.156;8.982;2023-04-19T07:59:43;15.33;;;9.20;;
17915;SDS011;9083;49.156;8.982;2023-04-19T08:02:10;15.37;;;9.13;;
17915;SDS011;9083;49.156;8.982;2023-04-19T08:04:36;11.17;;;8.30;;
17915;SDS011;9083;49.156;8.982;2023-04-19T08:07:03;21.03;;;8.73;;
17915;SDS011;9083;49.156;8.982;2023-04-19T08:09:29;16.63;;;9.03;;
17915;SDS011;9083;49.156;8.982;2023-04-19T08:11:56;13.43;;;8.80;;
17915;SDS011;9083;49.156;8.982;2023-04-19T08:14:23;12.73;;;8.67;;
17915;SDS011;9083;49.156;8.982;2023-04-19T08:16:50;13.73;;;8.40;;
17915;SDS011;9083;49.156;8.982;2023-04-19T08:19:16;15.23;;;8.80;;
17915;SDS011;9083;49.156;8.982;2023-04-19T08:21:43;13.53;;;8.30;;
17915;SDS011;9083;49.156;8.982;2023-04-19T08:24:09;16.43;;;8.60;;
17915;SDS011;9083;49.156;8.982;2023-04-19T08:26:35;17.97;;;8.93;;
17915;SDS011;9083;49.156;8.982;2023-04-19T08:29:03;13.57;;;8.37;;
17915;SDS011;9083;49.156;8.982;2023-04-19T08:31:31;11.17;;;8.13;;
17915;SDS011;9083;49.156;8.982;2023-04-19T08:34:06;15.93;;;8.97;;
17915;SDS011;9083;49.156;8.982;2023-04-19T08:36:33;12.73;;;8.17;;
17915;SDS011;9083;49.156;8.982;2023-04-19T08:38:59;13.60;;;8.80;;
17915;SDS011;9083;49.156;8.982;2023-04-19T08:41:25;10.93;;;7.50;;
17915;SDS011;9083;49.156;8.982;2023-04-19T08:43:53;12.00;;;7.90;;
17915;SDS011;9083;49.156;8.982;2023-04-19T08:46:20;12.40;;;8.10;;
17915;SDS011;9083;49.156;8.982;2023-04-19T08:48:49;29.00;;;9.73;;
17915;SDS011;9083;49.156;8.982;2023-04-19T08:51:15;19.87;;;8.50;;
17915;SDS011;9083;49.156;8.982;2023-04-19T08:53:42;18.07;;;8.77;;
17915;SDS011;9083;49.156;8.982;2023-04-19T08:56:09;17.37;;;8.43;;
17915;SDS011;9083;49.156;8.982;2023-04-19T08:58:36;11.43;;;8.27;;
17915;SDS011;9083;49.156;8.982;2023-04-19T09:01:03;10.90;;;7.27;;
17915;SDS011;9083;49.156;8.982;2023-04-19T09:03:29;17.67;;;8.37;;
17915;SDS011;9083;49.156;8.982;2023-04-19T09:05:57;12.90;;;7.10;;
17915;SDS011;9083;49.156;8.982;2023-04-19T09:08:26;9.53;;;6.67;;
17915;SDS011;9083;49.156;8.982;2023-04-19T09:10:53;14.57;;;7.43;;
17915;SDS011;9083;49.156;8.982;2023-04-19T09:13:19;12.07;;;7.30;;
17915;SDS011;9083;49.156;8.982;2023-04-19T09:15:46;13.10;;;6.63;;
17915;SDS011;9083;49.156;8.982;2023-04-19T09:18:12;9.10;;;6.80;;
17915;SDS011;9083;49.156;8.982;2023-04-19T09:20:40;9.67;;;6.37;;
17915;SDS011;9083;49.156;8.982;2023-04-19T09:23:08;10.20;;;7.23;;
17915;SDS011;9083;49.156;8.982;2023-04-19T09:25:36;9.83;;;6.73;;
17915;SDS011;9083;49.156;8.982;2023-04-19T09:28:09;11.83;;;6.43;;
17915;SDS011;9083;49.156;8.982;2023-04-19T09:30:36;11.47;;;7.03;;
17915;SDS011;9083;49.156;8.982;2023-04-19T09:33:03;26.20;;;11.13;;
17915;SDS011;9083;49.156;8.982;2023-04-19T09:35:39;9.70;;;7.20;;
17915;SDS011;9083;49.156;8.982;2023-04-19T09:38:07;12.17;;;7.40;;
17915;SDS011;9083;49.156;8.982;2023-04-19T09:40:34;9.43;;;7.07;;
17915;SDS011;9083;49.156;8.982;2023-04-19T09:43:01;9.13;;;6.47;;
17915;SDS011;9083;49.156;8.982;2023-04-19T09:45:28;9.60;;;6.90;;
17915;SDS011;9083;49.156;8.982;2023-04-19T09:48:04;10.47;;;7.80;;
17915;SDS011;9083;49.156;8.982;2023-04-19T09:50:31;11.53;;;7.57;;
17915;SDS011;9083;49.156;8.982;2023-04-19T09:52:57;12.60;;;7.70;;
17915;SDS011;9083;49.156;8.982;2023-04-19T09:55:25;10.53;;;6.63;;
17915;SDS011;9083;49.156;8.982;2023-04-19T09:57:52;11.50;;;7.30;;
17915;SDS011;9083;49.156;8.982;2023-04-19T10:00:19;13.50;;;7.33;;
17915;SDS011;9083;49.156;8.982;2023-04-19T10:02:46;16.27;;;7.30;;
17915;SDS011;9083;49.156;8.982;2023-04-19T10:05:19;8.13;;;6.10;;
17915;SDS011;9083;49.156;8.982;2023-04-19T10:07:46;8.57;;;6.43;;
17915;SDS011;9083;49.156;8.982;2023-04-19T10:10:13;31.60;;;6.57;;
17915;SDS011;9083;49.156;8.982;2023-04-19T10:12:42;7.93;;;6.33;;
17915;SDS011;9083;49.156;8.982;2023-04-19T10:15:10;12.83;;;6.47;;
17915;SDS011;9083;49.156;8.982;2023-04-19T10:17:38;8.83;;;6.50;;
17915;SDS011;9083;49.156;8.982;2023-04-19T10:20:05;9.90;;;6.90;;
17915;SDS011;9083;49.156;8.982;2023-04-19T10:22:33;16.37;;;7.20;;
17915;SDS011;9083;49.156;8.982;2023-04-19T10:25:08;10.23;;;6.73;;
17915;SDS011;9083;49.156;8.982;2023-04-19T10:27:35;9.30;;;6.70;;
17915;SDS011;9083;49.156;8.982;2023-04-19T10:30:06;14.27;;;7.60;;
17915;SDS011;9083;49.156;8.982;2023-04-19T10:32:43;12.13;;;7.40;;
17915;SDS011;9083;49.156;8.982;2023-04-19T10:35:10;10.63;;;6.87;;
17915;SDS011;9083;49.156;8.982;2023-04-19T10:37:44;14.30;;;8.13;;
17915;SDS011;9083;49.156;8.982;2023-04-19T10:43:14;10.40;;;8.73;;
17915;SDS011;9083;49.156;8.982;2023-04-19T10:45:43;13.57;;;9.53;;
17915;SDS011;9083;49.156;8.982;2023-04-19T10:50:56;11.70;;;8.03;;
17915;SDS011;9083;49.156;8.982;2023-04-19T10:56:07;16.73;;;7.63;;
17915;SDS011;9083;49.156;8.982;2023-04-19T11:01:32;16.73;;;7.90;;
17915;SDS011;9083;49.156;8.982;2023-04-19T11:03:58;13.13;;;7.50;;
17915;SDS011;9083;49.156;8.982;2023-04-19T11:06:25;13.33;;;7.23;;
17915;SDS011;9083;49.156;8.982;2023-04-19T11:08:52;15.50;;;8.23;;
17915;SDS011;9083;49.156;8.982;2023-04-19T11:11:19;15.93;;;7.87;;
17915;SDS011;9083;49.156;8.982;2023-04-19T11:13:46;14.80;;;8.03;;
17915;SDS011;9083;49.156;8.982;2023-04-19T11:16:12;13.43;;;8.63;;
17915;SDS011;9083;49.156;8.982;2023-04-19T11:18:41;15.73;;;9.27;;
17915;SDS011;9083;49.156;8.982;2023-04-19T11:21:11;11.63;;;8.13;;
17915;SDS011;9083;49.156;8.982;2023-04-19T11:23:37;23.83;;;9.30;;
17915;SDS011;9083;49.156;8.982;2023-04-19T11:26:04;16.13;;;8.10;;
17915;SDS011;9083;49.156;8.982;2023-04-19T11:28:31;13.03;;;8.50;;
17915;SDS011;9083;49.156;8.982;2023-04-19T11:30:58;14.40;;;8.17;;
17915;SDS011;9083;49.156;8.982;2023-04-19T11:33:24;12.07;;;7.70;;
17915;SDS011;9083;49.156;8.982;2023-04-19T11:35:54;12.67;;;8.40;;
17915;SDS011;9083;49.156;8.982;2023-04-19T11:38:20;11.70;;;7.83;;
17915;SDS011;9083;49.156;8.982;2023-04-19T11:40:46;21.40;;;8.77;;
17915;SDS011;9083;49.156;8.982;2023-04-19T11:43:13;16.93;;;7.97;;
17915;SDS011;9083;49.156;8.982;2023-04-19T11:45:40;12.97;;;7.50;;
17915;SDS011;9083;49.156;8.982;2023-04-19T11:48:07;12.60;;;7.37;;
17915;SDS011;9083;49.156;8.982;2023-04-19T11:50:38;21.03;;;8.43;;
17915;SDS011;9083;49.156;8.982;2023-04-19T11:53:10;13.47;;;7.57;;
17915;SDS011;9083;49.156;8.982;2023-04-19T11:55:38;13.23;;;7.33;;
17915;SDS011;9083;49.156;8.982;2023-04-19T11:58:05;16.80;;;7.40;;
17915;SDS011;9083;49.156;8.982;2023-04-19T12:00:39;15.93;;;7.17;;
17915;SDS011;9083;49.156;8.982;2023-04-19T12:03:11;12.73;;;6.93;;
17915;SDS011;9083;49.156;8.982;2023-04-19T12:05:38;9.77;;;6.80;;
17915;SDS011;9083;49.156;8.982;2023-04-19T12:08:05;9.70;;;7.27;;
17915;SDS011;9083;49.156;8.982;2023-04-19T12:10:34;14.30;;;7.50;;
17915;SDS011;9083;49.156;8.982;2023-04-19T12:13:00;19.33;;;6.63;;
17915;SDS011;9083;49.156;8.982;2023-04-19T12:18:13;13.17;;;6.30;;
17915;SDS011;9083;49.156;8.982;2023-04-19T12:20:42;13.20;;;7.33;;
17915;SDS011;9083;49.156;8.982;2023-04-19T12:23:09;17.30;;;7.30;;
17915;SDS011;9083;49.156;8.982;2023-04-19T12:25:39;8.17;;;6.30;;
17915;SDS011;9083;49.156;8.982;2023-04-19T12:28:05;9.93;;;6.43;;
17915;SDS011;9083;49.156;8.982;2023-04-19T12:30:32;7.40;;;5.90;;
17915;SDS011;9083;49.156;8.982;2023-04-19T12:32:59;9.70;;;6.30;;
17915;SDS011;9083;49.156;8.982;2023-04-19T12:35:25;13.47;;;7.00;;
17915;SDS011;9083;49.156;8.982;2023-04-19T12:37:52;12.63;;;7.17;;
17915;SDS011;9083;49.156;8.982;2023-04-19T12:40:19;9.43;;;6.40;;
17915;SDS011;9083;49.156;8.982;2023-04-19T12:42:47;11.93;;;6.70;;
17915;SDS011;9083;49.156;8.982;2023-04-19T12:45:13;13.37;;;6.03;;
17915;SDS011;9083;49.156;8.982;2023-04-19T12:47:43;12.17;;;6.03;;
17915;SDS011;9083;49.156;8.982;2023-04-19T12:50:10;8.57;;;6.33;;
17915;SDS011;9083;49.156;8.982;2023-04-19T12:52:37;16.43;;;6.23;;
17915;SDS011;9083;49.156;8.982;2023-04-19T12:55:04;10.13;;;6.13;;
17915;SDS011;9083;49.156;8.982;2023-04-19T12:57:30;13.50;;;6.40;;
17915;SDS011;9083;49.156;8.982;2023-04-19T12:59:58;8.53;;;5.67;;
17915;SDS011;9083;49.156;8.982;2023-04-19T13:02:24;12.20;;;6.37;;
17915;SDS011;9083;49.156;8.982;2023-04-19T13:04:51;26.93;;;7.43;;
17915;SDS011;9083;49.156;8.982;2023-04-19T13:07:17;16.93;;;6.30;;
17915;SDS011;9083;49.156;8.982;2023-04-19T13:09:44;11.60;;;5.70;;
17915;SDS011;9083;49.156;8.982;2023-04-19T13:12:10;7.97;;;5.20;;
17915;SDS011;9083;49.156;8.982;2023-04-19T13:14:36;7.13;;;5.10;;
17915;SDS011;9083;49.156;8.982;2023-04-19T13:17:04;6.47;;;4.83;;
17915;SDS011;9083;49.156;8.982;2023-04-19T13:19:31;9.27;;;5.67;;
17915;SDS011;9083;49.156;8.982;2023-04-19T13:21:57;10.47;;;6.43;;
17915;SDS011;9083;49.156;8.982;2023-04-19T13:24:23;7.00;;;5.70;;
17915;SDS011;9083;49.156;8.982;2023-04-19T13:26:50;9.77;;;6.60;;
17915;SDS011;9083;49.156;8.982;2023-04-19T13:29:16;8.80;;;6.20;;
17915;SDS011;9083;49.156;8.982;2023-04-19T13:31:43;9.07;;;6.40;;
17915;SDS011;9083;49.156;8.982;2023-04-19T13:34:12;9.37;;;6.03;;
17915;SDS011;9083;49.156;8.982;2023-04-19T13:36:38;9.90;;;6.90;;
17915;SDS011;9083;49.156;8.982;2023-04-19T13:39:05;6.57;;;5.23;;
17915;SDS011;9083;49.156;8.982;2023-04-19T13:41:31;5.87;;;5.30;;
17915;SDS011;9083;49.156;8.982;2023-04-19T13:43:58;20.77;;;6.70;;
17915;SDS011;9083;49.156;8.982;2023-04-19T13:46:24;9.73;;;5.87;;
17915;SDS011;9083;49.156;8.982;2023-04-19T13:48:50;13.50;;;5.47;;
17915;SDS011;9083;49.156;8.982;2023-04-19T13:51:18;6.43;;;4.77;;
17915;SDS011;9083;49.156;8.982;2023-04-19T13:53:44;12.07;;;5.57;;
17915;SDS011;9083;49.156;8.982;2023-04-19T13:56:11;7.73;;;5.27;;
17915;SDS011;9083;49.156;8.982;2023-04-19T13:58:37;9.43;;;5.83;;
17915;SDS011;9083;49.156;8.982;2023-04-19T14:01:04;11.37;;;5.90;;
17915;SDS011;9083;49.156;8.982;2023-04-19T14:03:31;7.50;;;5.80;;
17915;SDS011;9083;49.156;8.982;2023-04-19T14:05:57;11.07;;;5.60;;
17915;SDS011;9083;49.156;8.982;2023-04-19T14:08:25;8.37;;;4.57;;
17915;SDS011;9083;49.156;8.982;2023-04-19T14:10:51;11.83;;;6.33;;
17915;SDS011;9083;49.156;8.982;2023-04-19T14:13:18;7.70;;;5.33;;
17915;SDS011;9083;49.156;8.982;2023-04-19T14:15:44;9.03;;;5.87;;
17915;SDS011;9083;49.156;8.982;2023-04-19T14:18:10;9.27;;;4.93;;
17915;SDS011;9083;49.156;8.982;2023-04-19T14:20:37;5.77;;;4.77;;
17915;SDS011;9083;49.156;8.982;2023-04-19T14:23:03;9.60;;;6.70;;
17915;SDS011;9083;49.156;8.982;2023-04-19T14:25:31;6.17;;;4.90;;
17915;SDS011;9083;49.156;8.982;2023-04-19T14:27:58;5.23;;;4.50;;
17915;SDS011;9083;49.156;8.982;2023-04-19T14:30:24;8.97;;;4.87;;
17915;SDS011;9083;49.156;8.982;2023-04-19T14:32:51;9.83;;;5.80;;
17915;SDS011;9083;49.156;8.982;2023-04-19T14:35:17;5.77;;;4.97;;
17915;SDS011;9083;49.156;8.982;2023-04-19T14:37:44;10.40;;;5.33;;
17915;SDS011;9083;49.156;8.982;2023-04-19T14:40:11;8.00;;;5.10;;
17915;SDS011;9083;49.156;8.982;2023-04-19T14:42:39;15.03;;;4.50;;
17915;SDS011;9083;49.156;8.982;2023-04-19T14:45:06;3.53;;;3.07;;
17915;SDS011;9083;49.156;8.982;2023-04-19T14:47:32;7.07;;;3.30;;
17915;SDS011;9083;49.156;8.982;2023-04-19T14:49:59;6.77;;;3.00;;
17915;SDS011;9083;49.156;8.982;2023-04-19T14:52:25;4.53;;;2.63;;
17915;SDS011;9083;49.156;8.982;2023-04-19T14:54:52;3.00;;;2.80;;
17915;SDS011;9083;49.156;8.982;2023-04-19T14:57:18;12.03;;;3.27;;
17915;SDS011;9083;49.156;8.982;2023-04-19T14:59:46;4.60;;;3.10;;
17915;SDS011;9083;49.156;8.982;2023-04-19T15:02:12;7.60;;;3.37;;